sensor_id;sensor_type;location;lat;lon;timestamp;pressure;altitude;pressure_sealevel;temperature;humidity
71384;BME280;67558;52.166;5.004;2023-07-02T00:01:49;100750.38;;;21.37;57.26
71384;BME280;67558;52.166;5.004;2023-07-02T00:04:15;100748.44;;;21.38;56.94
71384;BME280;67558;52.166;5.004;2023-07-02T00:06:48;100747.09;;;21.32;56.69
71384;BME280;67558;52.166;5.004;2023-07-02T00:09:14;100750.59;;;21.20;56.42
71384;BME280;67558;52.166;5.004;2023-07-02T00:11:41;100758.41;;;21.21;56.52
71384;BME280;67558;52.166;5.004;2023-07-02T00:14:08;100740.97;;;21.10;56.18
71384;BME280;67558;52.166;5.004;2023-07-02T00:16:33;100744.34;;;21.07;55.93
71384;BME280;67558;52.166;5.004;2023-07-02T00:18:59;100750.56;;;21.07;56.04
71384;BME280;67558;52.166;5.004;2023-07-02T00:21:28;100754.31;;;21.15;55.66
71384;BME280;67558;52.166;5.004;2023-07-02T00:23:54;100766.00;;;21.16;55.23
71384;BME280;67558;52.166;5.004;2023-07-02T00:26:22;100743.19;;;20.96;54.90
71384;BME280;67558;52.166;5.004;2023-07-02T00:28:48;100757.72;;;21.00;54.83
71384;BME280;67558;52.166;5.004;2023-07-02T00:31:13;100762.91;;;21.05;54.81
71384;BME280;67558;52.166;5.004;2023-07-02T00:33:38;100767.44;;;21.01;54.47
71384;BME280;67558;52.166;5.004;2023-07-02T00:36:04;100730.00;;;20.73;54.32
71384;BME280;67558;52.166;5.004;2023-07-02T00:38:29;100754.50;;;20.85;54.28
71384;BME280;67558;52.166;5.004;2023-07-02T00:40:54;100727.81;;;20.66;53.92
71384;BME280;67558;52.166;5.004;2023-07-02T00:43:20;100748.09;;;20.69;53.99
71384;BME280;67558;52.166;5.004;2023-07-02T00:45:46;100757.25;;;20.64;53.67
71384;BME280;67558;52.166;5.004;2023-07-02T00:48:12;100784.34;;;20.73;54.02
71384;BME280;67558;52.166;5.004;2023-07-02T00:50:39;100755.47;;;20.48;53.89
71384;BME280;67558;52.166;5.004;2023-07-02T00:53:04;100784.66;;;20.59;53.86
71384;BME280;67558;52.166;5.004;2023-07-02T00:55:29;100761.09;;;20.42;53.71
71384;BME280;67558;52.166;5.004;2023-07-02T00:57:55;100773.13;;;20.41;53.97
71384;BME280;67558;52.166;5.004;2023-07-02T01:00:22;100747.34;;;20.27;53.68
71384;BME280;67558;52.166;5.004;2023-07-02T01:02:54;100753.56;;;20.27;53.78
71384;BME280;67558;52.166;5.004;2023-07-02T01:05:28;100768.09;;;20.31;53.88
71384;BME280;67558;52.166;5.004;2023-07-02T01:08:00;100738.19;;;20.10;53.55
71384;BME280;67558;52.166;5.004;2023-07-02T01:10:26;100766.91;;;20.20;53.56
71384;BME280;67558;52.166;5.004;2023-07-02T01:12:52;100788.66;;;20.32;53.33
71384;BME280;67558;52.166;5.004;2023-07-02T01:15:18;100780.94;;;20.22;53.21
71384;BME280;67558;52.166;5.004;2023-07-02T01:17:43;100791.81;;;20.22;53.23
71384;BME280;67558;52.166;5.004;2023-07-02T01:20:10;100777.53;;;20.04;53.41
71384;BME280;67558;52.166;5.004;2023-07-02T01:22:36;100788.78;;;20.15;53.41
71384;BME280;67558;52.166;5.004;2023-07-02T01:25:02;100781.25;;;19.99;53.41
71384;BME280;67558;52.166;5.004;2023-07-02T01:27:28;100800.97;;;20.09;53.57
71384;BME280;67558;52.166;5.004;2023-07-02T01:29:54;100780.91;;;20.01;53.33
71384;BME280;67558;52.166;5.004;2023-07-02T01:32:20;100783.63;;;20.01;53.34
71384;BME280;67558;52.166;5.004;2023-07-02T01:34:45;100788.91;;;19.97;53.38
71384;BME280;67558;52.166;5.004;2023-07-02T01:37:14;100782.75;;;19.88;53.52
71384;BME280;67558;52.166;5.004;2023-07-02T01:39:40;100794.56;;;19.92;53.41
71384;BME280;67558;52.166;5.004;2023-07-02T01:42:13;100792.81;;;19.88;53.39
71384;BME280;67558;52.166;5.004;2023-07-02T01:44:41;100796.66;;;19.87;53.56
71384;BME280;67558;52.166;5.004;2023-07-02T01:47:07;100791.41;;;19.81;53.43
71384;BME280;67558;52.166;5.004;2023-07-02T01:49:32;100762.13;;;19.57;53.44
71384;BME280;67558;52.166;5.004;2023-07-02T01:51:58;100793.66;;;19.79;53.45
71384;BME280;67558;52.166;5.004;2023-07-02T01:54:25;100793.31;;;19.81;53.51
71384;BME280;67558;52.166;5.004;2023-07-02T01:56:52;100776.28;;;19.72;53.37
71384;BME280;67558;52.166;5.004;2023-07-02T01:59:18;100788.75;;;19.73;53.18
71384;BME280;67558;52.166;5.004;2023-07-02T02:01:43;100785.22;;;19.72;53.38
71384;BME280;67558;52.166;5.004;2023-07-02T02:04:09;100788.56;;;19.78;53.31
71384;BME280;67558;52.166;5.004;2023-07-02T02:06:35;100799.72;;;19.76;53.36
71384;BME280;67558;52.166;5.004;2023-07-02T02:09:01;100792.56;;;19.72;53.24
71384;BME280;67558;52.166;5.004;2023-07-02T02:11:28;100784.91;;;19.65;53.22
71384;BME280;67558;52.166;5.004;2023-07-02T02:13:53;100795.78;;;19.65;53.33
71384;BME280;67558;52.166;5.004;2023-07-02T02:16:20;100798.34;;;19.61;53.36
71384;BME280;67558;52.166;5.004;2023-07-02T02:18:45;100788.97;;;19.50;53.57
71384;BME280;67558;52.166;5.004;2023-07-02T02:21:10;100803.31;;;19.51;53.92
71384;BME280;67558;52.166;5.004;2023-07-02T02:23:36;100797.47;;;19.40;54.24
71384;BME280;67558;52.166;5.004;2023-07-02T02:26:01;100790.34;;;19.27;54.19
71384;BME280;67558;52.166;5.004;2023-07-02T02:28:26;100800.72;;;19.24;54.15
71384;BME280;67558;52.166;5.004;2023-07-02T02:30:52;100798.19;;;19.19;54.67
71384;BME280;67558;52.166;5.004;2023-07-02T02:33:17;100796.28;;;19.11;54.83
71384;BME280;67558;52.166;5.004;2023-07-02T02:35:42;100794.88;;;19.05;54.53
71384;BME280;67558;52.166;5.004;2023-07-02T02:38:08;100792.16;;;18.96;55.07
71384;BME280;67558;52.166;5.004;2023-07-02T02:40:33;100809.88;;;19.02;54.97
71384;BME280;67558;52.166;5.004;2023-07-02T02:42:59;100811.94;;;18.97;55.00
71384;BME280;67558;52.166;5.004;2023-07-02T02:45:25;100805.75;;;18.88;55.36
71384;BME280;67558;52.166;5.004;2023-07-02T02:47:50;100797.91;;;18.77;55.17
71384;BME280;67558;52.166;5.004;2023-07-02T02:50:15;100796.16;;;18.73;55.58
71384;BME280;67558;52.166;5.004;2023-07-02T02:52:41;100810.84;;;18.72;55.57
71384;BME280;67558;52.166;5.004;2023-07-02T02:55:09;100826.94;;;18.77;55.70
71384;BME280;67558;52.166;5.004;2023-07-02T02:57:35;100804.31;;;18.64;55.71
71384;BME280;67558;52.166;5.004;2023-07-02T03:00:01;100832.19;;;18.73;55.42
71384;BME280;67558;52.166;5.004;2023-07-02T03:02:26;100825.34;;;18.67;55.45
71384;BME280;67558;52.166;5.004;2023-07-02T03:04:51;100823.91;;;18.70;55.72
71384;BME280;67558;52.166;5.004;2023-07-02T03:07:17;100835.38;;;18.75;55.62
71384;BME280;67558;52.166;5.004;2023-07-02T03:09:42;100836.50;;;18.74;55.27
71384;BME280;67558;52.166;5.004;2023-07-02T03:12:08;100832.81;;;18.70;55.63
71384;BME280;67558;52.166;5.004;2023-07-02T03:14:33;100843.97;;;18.77;55.30
71384;BME280;67558;52.166;5.004;2023-07-02T03:16:58;100839.06;;;18.79;55.30
71384;BME280;67558;52.166;5.004;2023-07-02T03:19:24;100835.38;;;18.75;55.31
71384;BME280;67558;52.166;5.004;2023-07-02T03:21:50;100838.56;;;18.77;55.01
71384;BME280;67558;52.166;5.004;2023-07-02T03:24:15;100803.81;;;18.53;55.40
71384;BME280;67558;52.166;5.004;2023-07-02T03:26:42;100832.81;;;18.70;55.45
71384;BME280;67558;52.166;5.004;2023-07-02T03:29:07;100820.56;;;18.64;55.27
71384;BME280;67558;52.166;5.004;2023-07-02T03:31:33;100767.81;;;18.27;55.19
71384;BME280;67558;52.166;5.004;2023-07-02T03:34:02;100808.44;;;18.53;55.35
71384;BME280;67558;52.166;5.004;2023-07-02T03:36:28;100815.44;;;18.54;55.42
71384;BME280;67558;52.166;5.004;2023-07-02T03:38:53;100843.50;;;18.67;55.53
71384;BME280;67558;52.166;5.004;2023-07-02T03:41:18;100828.19;;;18.62;55.18
71384;BME280;67558;52.166;5.004;2023-07-02T03:43:44;100830.59;;;18.63;54.98
71384;BME280;67558;52.166;5.004;2023-07-02T03:46:09;100830.28;;;18.65;54.97
71384;BME280;67558;52.166;5.004;2023-07-02T03:48:34;100812.75;;;18.54;54.87
71384;BME280;67558;52.166;5.004;2023-07-02T03:51:01;100835.38;;;18.67;55.26
71384;BME280;67558;52.166;5.004;2023-07-02T03:53:27;100843.00;;;18.65;55.16
71384;BME280;67558;52.166;5.004;2023-07-02T03:55:52;100833.47;;;18.58;54.93
71384;BME280;67558;52.166;5.004;2023-07-02T03:58:18;100818.00;;;18.50;55.23
71384;BME280;67558;52.166;5.004;2023-07-02T04:00:43;100861.06;;;18.69;55.29
71384;BME280;67558;52.166;5.004;2023-07-02T04:03:09;100814.97;;;18.43;55.30
71384;BME280;67558;52.166;5.004;2023-07-02T04:05:34;100850.34;;;18.64;55.42
71384;BME280;67558;52.166;5.004;2023-07-02T04:08:00;100837.94;;;18.54;55.19
71384;BME280;67558;52.166;5.004;2023-07-02T04:10:25;100847.47;;;18.60;55.24
71384;BME280;67558;52.166;5.004;2023-07-02T04:12:50;100878.25;;;18.73;55.34
71384;BME280;67558;52.166;5.004;2023-07-02T04:15:15;100847.66;;;18.64;55.67
71384;BME280;67558;52.166;5.004;2023-07-02T04:17:41;100873.66;;;18.82;55.48
71384;BME280;67558;52.166;5.004;2023-07-02T04:20:07;100870.00;;;18.87;55.35
71384;BME280;67558;52.166;5.004;2023-07-02T04:22:33;100859.94;;;18.88;55.37
71384;BME280;67558;52.166;5.004;2023-07-02T04:24:58;100873.00;;;19.03;55.37
71384;BME280;67558;52.166;5.004;2023-07-02T04:27:24;100879.84;;;19.09;54.97
71384;BME280;67558;52.166;5.004;2023-07-02T04:29:49;100867.41;;;19.17;54.94
71384;BME280;67558;52.166;5.004;2023-07-02T04:32:15;100879.03;;;19.26;54.92
71384;BME280;67558;52.166;5.004;2023-07-02T04:34:40;100873.78;;;19.30;55.07
71384;BME280;67558;52.166;5.004;2023-07-02T04:37:06;100867.53;;;19.29;54.75
71384;BME280;67558;52.166;5.004;2023-07-02T04:39:31;100883.63;;;19.43;54.88
71384;BME280;67558;52.166;5.004;2023-07-02T04:41:57;100893.81;;;19.46;54.81
71384;BME280;67558;52.166;5.004;2023-07-02T04:44:22;100884.59;;;19.47;54.66
71384;BME280;67558;52.166;5.004;2023-07-02T04:46:57;100884.88;;;19.54;54.50
71384;BME280;67558;52.166;5.004;2023-07-02T04:49:23;100899.19;;;19.63;54.29
71384;BME280;67558;52.166;5.004;2023-07-02T04:51:48;100890.75;;;19.65;54.13
71384;BME280;67558;52.166;5.004;2023-07-02T04:54:13;100888.03;;;19.65;54.04
71384;BME280;67558;52.166;5.004;2023-07-02T04:56:39;100891.88;;;19.73;54.01
71384;BME280;67558;52.166;5.004;2023-07-02T04:59:04;100898.38;;;19.80;53.79
71384;BME280;67558;52.166;5.004;2023-07-02T05:01:29;100906.47;;;19.89;53.43
71384;BME280;67558;52.166;5.004;2023-07-02T05:03:54;100893.25;;;19.88;53.51
71384;BME280;67558;52.166;5.004;2023-07-02T05:06:20;100891.28;;;19.97;53.36
71384;BME280;67558;52.166;5.004;2023-07-02T05:08:45;100877.09;;;19.91;53.02
71384;BME280;67558;52.166;5.004;2023-07-02T05:11:10;100890.50;;;19.96;52.96
71384;BME280;67558;52.166;5.004;2023-07-02T05:13:36;100910.25;;;20.05;52.99
71384;BME280;67558;52.166;5.004;2023-07-02T05:16:01;100888.91;;;19.95;52.79
71384;BME280;67558;52.166;5.004;2023-07-02T05:18:27;100896.41;;;19.98;52.73
71384;BME280;67558;52.166;5.004;2023-07-02T05:20:53;100885.72;;;19.93;52.80
71384;BME280;67558;52.166;5.004;2023-07-02T05:23:18;100892.22;;;20.01;53.09
71384;BME280;67558;52.166;5.004;2023-07-02T05:25:44;100897.50;;;19.97;52.92
71384;BME280;67558;52.166;5.004;2023-07-02T05:28:11;100914.38;;;20.12;52.98
71384;BME280;67558;52.166;5.004;2023-07-02T05:30:36;100913.88;;;20.18;52.80
71384;BME280;67558;52.166;5.004;2023-07-02T05:33:01;100910.16;;;20.23;52.72
71384;BME280;67558;52.166;5.004;2023-07-02T05:35:27;100917.47;;;20.31;52.74
71384;BME280;67558;52.166;5.004;2023-07-02T05:37:52;100928.69;;;20.51;52.57
71384;BME280;67558;52.166;5.004;2023-07-02T05:40:17;100918.31;;;20.53;52.34
71384;BME280;67558;52.166;5.004;2023-07-02T05:42:43;100926.03;;;20.72;52.26
71384;BME280;67558;52.166;5.004;2023-07-02T05:45:08;100943.00;;;20.90;52.02
71384;BME280;67558;52.166;5.004;2023-07-02T05:47:34;100935.72;;;21.02;51.30
71384;BME280;67558;52.166;5.004;2023-07-02T05:49:59;100912.69;;;21.00;51.00
71384;BME280;67558;52.166;5.004;2023-07-02T05:52:24;100919.00;;;21.13;50.86
71384;BME280;67558;52.166;5.004;2023-07-02T05:54:50;100936.41;;;21.33;50.45
71384;BME280;67558;52.166;5.004;2023-07-02T05:57:15;100931.03;;;21.45;50.10
71384;BME280;67558;52.166;5.004;2023-07-02T05:59:40;100931.81;;;21.45;49.86
71384;BME280;67558;52.166;5.004;2023-07-02T06:02:06;100932.53;;;21.55;49.54
71384;BME280;67558;52.166;5.004;2023-07-02T06:04:31;100941.72;;;21.62;49.39
71384;BME280;67558;52.166;5.004;2023-07-02T06:06:57;100947.53;;;21.73;49.13
71384;BME280;67558;52.166;5.004;2023-07-02T06:09:22;100933.69;;;21.78;49.07
71384;BME280;67558;52.166;5.004;2023-07-02T06:11:48;100949.03;;;21.95;49.16
71384;BME280;67558;52.166;5.004;2023-07-02T06:14:13;100944.63;;;22.03;49.21
71384;BME280;67558;52.166;5.004;2023-07-02T06:16:38;100947.34;;;22.03;48.70
71384;BME280;67558;52.166;5.004;2023-07-02T06:19:04;100946.22;;;22.04;48.12
71384;BME280;67558;52.166;5.004;2023-07-02T06:21:30;100959.72;;;22.13;47.74
71384;BME280;67558;52.166;5.004;2023-07-02T06:23:56;100962.91;;;22.15;47.50
71384;BME280;67558;52.166;5.004;2023-07-02T06:26:23;100952.00;;;22.15;47.25
71384;BME280;67558;52.166;5.004;2023-07-02T06:28:48;100960.63;;;22.17;47.04
71384;BME280;67558;52.166;5.004;2023-07-02T06:31:13;100962.47;;;22.25;47.17
71384;BME280;67558;52.166;5.004;2023-07-02T06:33:39;100950.91;;;22.28;46.86
71384;BME280;67558;52.166;5.004;2023-07-02T06:36:05;100951.94;;;22.36;46.48
71384;BME280;67558;52.166;5.004;2023-07-02T06:38:31;100960.44;;;22.34;46.52
71384;BME280;67558;52.166;5.004;2023-07-02T06:40:56;100949.19;;;22.36;46.49
71384;BME280;67558;52.166;5.004;2023-07-02T06:43:21;100956.59;;;22.35;45.78
71384;BME280;67558;52.166;5.004;2023-07-02T06:45:47;100977.25;;;22.48;45.92
71384;BME280;67558;52.166;5.004;2023-07-02T06:48:13;100967.47;;;22.47;46.05
71384;BME280;67558;52.166;5.004;2023-07-02T06:50:43;100954.97;;;22.46;45.82
71384;BME280;67558;52.166;5.004;2023-07-02T06:53:09;100975.63;;;22.60;45.30
71384;BME280;67558;52.166;5.004;2023-07-02T06:55:34;100956.09;;;22.58;45.12
71384;BME280;67558;52.166;5.004;2023-07-02T06:58:00;100975.63;;;22.72;45.63
71384;BME280;67558;52.166;5.004;2023-07-02T07:00:25;100978.22;;;22.68;45.71
71384;BME280;67558;52.166;5.004;2023-07-02T07:02:50;100996.28;;;22.73;45.21
71384;BME280;67558;52.166;5.004;2023-07-02T07:05:16;100985.63;;;22.68;44.69
71384;BME280;67558;52.166;5.004;2023-07-02T07:07:41;101005.38;;;22.77;44.32
71384;BME280;67558;52.166;5.004;2023-07-02T07:10:07;100992.66;;;22.69;44.00
71384;BME280;67558;52.166;5.004;2023-07-02T07:12:32;101011.06;;;22.84;44.30
71384;BME280;67558;52.166;5.004;2023-07-02T07:14:58;101013.53;;;22.89;43.72
71384;BME280;67558;52.166;5.004;2023-07-02T07:17:23;101004.31;;;22.94;43.37
71384;BME280;67558;52.166;5.004;2023-07-02T07:19:49;101002.03;;;22.96;43.15
71384;BME280;67558;52.166;5.004;2023-07-02T07:22:14;101010.00;;;23.01;42.89
71384;BME280;67558;52.166;5.004;2023-07-02T07:24:41;101027.50;;;23.13;43.09
71384;BME280;67558;52.166;5.004;2023-07-02T07:27:07;101032.25;;;23.16;43.02
71384;BME280;67558;52.166;5.004;2023-07-02T07:29:32;101020.22;;;23.17;42.43
71384;BME280;67558;52.166;5.004;2023-07-02T07:31:58;101021.91;;;23.21;41.87
71384;BME280;67558;52.166;5.004;2023-07-02T07:34:23;101027.13;;;23.26;42.18
71384;BME280;67558;52.166;5.004;2023-07-02T07:36:48;101026.91;;;23.19;42.25
71384;BME280;67558;52.166;5.004;2023-07-02T07:39:14;101031.69;;;23.10;42.52
71384;BME280;67558;52.166;5.004;2023-07-02T07:41:39;101033.19;;;23.07;43.08
71384;BME280;67558;52.166;5.004;2023-07-02T07:44:04;101036.69;;;23.08;42.65
71384;BME280;67558;52.166;5.004;2023-07-02T07:46:30;101020.44;;;23.12;42.82
71384;BME280;67558;52.166;5.004;2023-07-02T07:48:55;101022.25;;;23.20;42.00
71384;BME280;67558;52.166;5.004;2023-07-02T07:51:20;101024.72;;;23.25;42.72
71384;BME280;67558;52.166;5.004;2023-07-02T07:53:46;101036.91;;;23.27;42.94
71384;BME280;67558;52.166;5.004;2023-07-02T07:56:11;101052.09;;;23.41;42.84
71384;BME280;67558;52.166;5.004;2023-07-02T07:58:37;101048.66;;;23.44;42.40
71384;BME280;67558;52.166;5.004;2023-07-02T08:01:02;101054.13;;;23.44;42.43
71384;BME280;67558;52.166;5.004;2023-07-02T08:03:27;101038.22;;;23.34;42.12
71384;BME280;67558;52.166;5.004;2023-07-02T08:05:52;101055.72;;;23.45;42.19
71384;BME280;67558;52.166;5.004;2023-07-02T08:08:18;101055.47;;;23.50;41.93
71384;BME280;67558;52.166;5.004;2023-07-02T08:10:43;101043.09;;;23.40;41.11
71384;BME280;67558;52.166;5.004;2023-07-02T08:13:10;101032.31;;;23.31;41.62
71384;BME280;67558;52.166;5.004;2023-07-02T08:15:37;101064.59;;;23.42;41.56
71384;BME280;67558;52.166;5.004;2023-07-02T08:18:02;101042.22;;;23.36;41.31
71384;BME280;67558;52.166;5.004;2023-07-02T08:20:29;101044.34;;;23.43;41.24
71384;BME280;67558;52.166;5.004;2023-07-02T08:22:54;101043.38;;;23.51;41.07
71384;BME280;67558;52.166;5.004;2023-07-02T08:25:19;101064.28;;;23.59;41.51
71384;BME280;67558;52.166;5.004;2023-07-02T08:27:46;101047.38;;;23.54;41.00
71384;BME280;67558;52.166;5.004;2023-07-02T08:30:12;101047.88;;;23.43;40.86
71384;BME280;67558;52.166;5.004;2023-07-02T08:32:37;101059.78;;;23.51;41.07
71384;BME280;67558;52.166;5.004;2023-07-02T08:35:03;101038.44;;;23.41;41.13
71384;BME280;67558;52.166;5.004;2023-07-02T08:37:28;101045.44;;;23.54;41.26
71384;BME280;67558;52.166;5.004;2023-07-02T08:39:54;101073.16;;;23.68;41.12
71384;BME280;67558;52.166;5.004;2023-07-02T08:42:19;101043.16;;;23.56;41.19
71384;BME280;67558;52.166;5.004;2023-07-02T08:44:53;101069.31;;;23.57;41.19
71384;BME280;67558;52.166;5.004;2023-07-02T08:47:18;101071.13;;;23.53;40.87
71384;BME280;67558;52.166;5.004;2023-07-02T08:49:43;101070.50;;;23.44;41.05
71384;BME280;67558;52.166;5.004;2023-07-02T08:52:09;101073.69;;;23.46;40.85
71384;BME280;67558;52.166;5.004;2023-07-02T08:54:34;101080.16;;;23.54;40.77
71384;BME280;67558;52.166;5.004;2023-07-02T08:57:00;101060.47;;;23.48;40.73
71384;BME280;67558;52.166;5.004;2023-07-02T08:59:30;101082.72;;;23.62;40.71
71384;BME280;67558;52.166;5.004;2023-07-02T09:01:55;101060.66;;;23.55;40.36
71384;BME280;67558;52.166;5.004;2023-07-02T09:04:25;101071.44;;;23.64;39.94
71384;BME280;67558;52.166;5.004;2023-07-02T09:07:03;101078.84;;;23.76;39.73
71384;BME280;67558;52.166;5.004;2023-07-02T09:09:29;101076.41;;;23.74;39.32
71384;BME280;67558;52.166;5.004;2023-07-02T09:11:54;101068.34;;;23.78;38.69
71384;BME280;67558;52.166;5.004;2023-07-02T09:14:30;101074.47;;;23.75;38.59
71384;BME280;67558;52.166;5.004;2023-07-02T09:17:06;101072.44;;;23.71;38.17
71384;BME280;67558;52.166;5.004;2023-07-02T09:19:32;101076.78;;;23.73;38.81
71384;BME280;67558;52.166;5.004;2023-07-02T09:21:59;101071.53;;;23.67;38.97
71384;BME280;67558;52.166;5.004;2023-07-02T09:24:27;101074.03;;;23.73;37.94
71384;BME280;67558;52.166;5.004;2023-07-02T09:26:58;101074.94;;;23.77;37.95
71384;BME280;67558;52.166;5.004;2023-07-02T09:29:28;101071.97;;;23.82;38.07
71384;BME280;67558;52.166;5.004;2023-07-02T09:31:56;101080.53;;;23.96;38.40
71384;BME280;67558;52.166;5.004;2023-07-02T09:34:32;101052.25;;;23.88;38.10
71384;BME280;67558;52.166;5.004;2023-07-02T09:36:59;101081.03;;;24.14;38.31
71384;BME280;67558;52.166;5.004;2023-07-02T09:39:29;101081.81;;;24.15;36.45
71384;BME280;67558;52.166;5.004;2023-07-02T09:41:56;101072.03;;;24.14;37.06
71384;BME280;67558;52.166;5.004;2023-07-02T09:44:22;101078.81;;;24.20;36.93
71384;BME280;67558;52.166;5.004;2023-07-02T09:47:04;101083.16;;;24.21;36.91
71384;BME280;67558;52.166;5.004;2023-07-02T09:49:38;101058.81;;;24.16;37.20
71384;BME280;67558;52.166;5.004;2023-07-02T09:52:08;101084.66;;;24.34;37.70
71384;BME280;67558;52.166;5.004;2023-07-02T09:54:35;101082.53;;;24.43;37.12
71384;BME280;67558;52.166;5.004;2023-07-02T09:57:01;101086.13;;;24.47;36.81
71384;BME280;67558;52.166;5.004;2023-07-02T09:59:27;101084.91;;;24.45;35.97
71384;BME280;67558;52.166;5.004;2023-07-02T10:01:53;101087.31;;;24.46;35.71
71384;BME280;67558;52.166;5.004;2023-07-02T10:04:19;101075.66;;;24.49;36.05
71384;BME280;67558;52.166;5.004;2023-07-02T10:06:46;101085.19;;;24.56;35.79
71384;BME280;67558;52.166;5.004;2023-07-02T10:09:12;101100.03;;;24.55;35.46
71384;BME280;67558;52.166;5.004;2023-07-02T10:11:37;101081.38;;;24.44;35.43
71384;BME280;67558;52.166;5.004;2023-07-02T10:14:03;101093.13;;;24.45;35.13
71384;BME280;67558;52.166;5.004;2023-07-02T10:16:28;101091.00;;;24.38;36.05
71384;BME280;67558;52.166;5.004;2023-07-02T10:19:08;101091.53;;;24.44;35.26
71384;BME280;67558;52.166;5.004;2023-07-02T10:21:33;101085.25;;;24.27;35.80
71384;BME280;67558;52.166;5.004;2023-07-02T10:26:36;101108.19;;;24.23;36.23
71384;BME280;67558;52.166;5.004;2023-07-02T10:29:01;101104.56;;;24.19;36.17
71384;BME280;67558;52.166;5.004;2023-07-02T10:31:28;101097.47;;;24.02;36.00
71384;BME280;67558;52.166;5.004;2023-07-02T10:33:54;101078.06;;;23.91;36.34
71384;BME280;67558;52.166;5.004;2023-07-02T10:36:24;101114.06;;;24.09;36.46
71384;BME280;67558;52.166;5.004;2023-07-02T10:38:51;101107.97;;;24.00;35.90
71384;BME280;67558;52.166;5.004;2023-07-02T10:41:25;101107.16;;;23.99;36.03
71384;BME280;67558;52.166;5.004;2023-07-02T10:43:50;101113.44;;;24.00;35.85
71384;BME280;67558;52.166;5.004;2023-07-02T10:46:22;101119.34;;;24.02;35.48
71384;BME280;67558;52.166;5.004;2023-07-02T10:49:05;101107.00;;;23.92;35.36
71384;BME280;67558;52.166;5.004;2023-07-02T10:51:33;101121.63;;;24.00;35.86
71384;BME280;67558;52.166;5.004;2023-07-02T10:54:00;101111.75;;;23.95;36.13
71384;BME280;67558;52.166;5.004;2023-07-02T10:56:27;101110.06;;;23.90;36.15
71384;BME280;67558;52.166;5.004;2023-07-02T10:58:53;101099.53;;;23.77;35.61
71384;BME280;67558;52.166;5.004;2023-07-02T11:01:27;101115.63;;;23.94;35.46
71384;BME280;67558;52.166;5.004;2023-07-02T11:04:10;101123.56;;;23.99;35.13
71384;BME280;67558;52.166;5.004;2023-07-02T11:06:36;101099.03;;;23.87;34.71
71384;BME280;67558;52.166;5.004;2023-07-02T11:09:01;101114.66;;;24.02;33.94
71384;BME280;67558;52.166;5.004;2023-07-02T11:11:26;101131.50;;;24.04;33.83
71384;BME280;67558;52.166;5.004;2023-07-02T11:13:52;101129.66;;;24.08;33.66
71384;BME280;67558;52.166;5.004;2023-07-02T11:16:26;101114.44;;;24.07;33.47
71384;BME280;67558;52.166;5.004;2023-07-02T11:18:53;101135.38;;;24.03;33.17
71384;BME280;67558;52.166;5.004;2023-07-02T11:21:19;101126.47;;;24.06;33.59
71384;BME280;67558;52.166;5.004;2023-07-02T11:23:44;101125.34;;;24.07;33.49
71384;BME280;67558;52.166;5.004;2023-07-02T11:26:10;101136.91;;;24.17;33.56
71384;BME280;67558;52.166;5.004;2023-07-02T11:28:35;101113.03;;;24.14;32.69
71384;BME280;67558;52.166;5.004;2023-07-02T11:31:01;101128.44;;;24.22;32.53
71384;BME280;67558;52.166;5.004;2023-07-02T11:33:38;101123.69;;;24.19;32.34
71384;BME280;67558;52.166;5.004;2023-07-02T11:36:07;101107.56;;;24.14;32.92
71384;BME280;67558;52.166;5.004;2023-07-02T11:38:34;101129.09;;;24.31;32.89
71384;BME280;67558;52.166;5.004;2023-07-02T11:41:03;101133.84;;;24.34;32.33
71384;BME280;67558;52.166;5.004;2023-07-02T11:43:28;101127.41;;;24.26;31.81
71384;BME280;67558;52.166;5.004;2023-07-02T11:45:54;101127.84;;;24.28;31.87
71384;BME280;67558;52.166;5.004;2023-07-02T11:48:19;101138.69;;;24.25;32.17
71384;BME280;67558;52.166;5.004;2023-07-02T11:50:44;101135.41;;;24.19;31.96
71384;BME280;67558;52.166;5.004;2023-07-02T11:53:10;101123.06;;;24.09;32.16
71384;BME280;67558;52.166;5.004;2023-07-02T11:55:36;101129.75;;;24.12;32.11
71384;BME280;67558;52.166;5.004;2023-07-02T11:58:02;101134.06;;;24.13;32.05
71384;BME280;67558;52.166;5.004;2023-07-02T12:00:27;101125.84;;;23.97;31.47
71384;BME280;67558;52.166;5.004;2023-07-02T12:02:52;101142.97;;;24.10;31.50
71384;BME280;67558;52.166;5.004;2023-07-02T12:05:18;101139.00;;;24.07;31.31
71384;BME280;67558;52.166;5.004;2023-07-02T12:07:43;101150.03;;;24.11;31.63
71384;BME280;67558;52.166;5.004;2023-07-02T12:10:08;101134.34;;;24.08;31.67
71384;BME280;67558;52.166;5.004;2023-07-02T12:12:34;101136.19;;;24.04;31.63
71384;BME280;67558;52.166;5.004;2023-07-02T12:14:59;101144.94;;;24.09;31.96
71384;BME280;67558;52.166;5.004;2023-07-02T12:17:24;101154.69;;;24.10;31.43
71384;BME280;67558;52.166;5.004;2023-07-02T12:19:50;101141.47;;;24.12;31.72
71384;BME280;67558;52.166;5.004;2023-07-02T12:22:16;101154.53;;;24.19;31.97
71384;BME280;67558;52.166;5.004;2023-07-02T12:24:43;101150.56;;;24.17;32.13
71384;BME280;67558;52.166;5.004;2023-07-02T12:27:08;101152.34;;;24.25;31.89
71384;BME280;67558;52.166;5.004;2023-07-02T12:29:36;101145.41;;;24.27;32.28
71384;BME280;67558;52.166;5.004;2023-07-02T12:32:01;101153.59;;;24.27;32.65
71384;BME280;67558;52.166;5.004;2023-07-02T12:34:26;101140.53;;;24.21;33.10
71384;BME280;67558;52.166;5.004;2023-07-02T12:36:54;101132.16;;;24.14;33.38
71384;BME280;67558;52.166;5.004;2023-07-02T12:39:20;101166.66;;;24.34;33.64
71384;BME280;67558;52.166;5.004;2023-07-02T12:41:45;101151.19;;;24.26;33.50
71384;BME280;67558;52.166;5.004;2023-07-02T12:44:10;101154.31;;;24.24;33.40
71384;BME280;67558;52.166;5.004;2023-07-02T12:46:36;101162.94;;;24.26;33.62
71384;BME280;67558;52.166;5.004;2023-07-02T12:49:01;101167.88;;;24.21;33.31